Bookmark and Share
Track history (hours):
 

E.r. Basel

Last reported at 2014-Apr-10 02:27 UTC. Time now 2014-Apr-23 15:24 UTC.
Position S 32°57' E 016°37'.
Warning: this ship's position is 13 days out of date.

Length 187 m; draft 9.5 m.

Type: Cargo ship. MMSI: 636092149.

NotesDate/timePositionNaut miles runAvg speedWind from/ knotsBaromVisibWave heightAir tempDewpointWater temp
2014-Apr-10 02:27S 32°57' E 016°37'1712.5
2014-Apr-10 01:04S 33°10' E 016°49'1112.5
2014-Apr-10 00:13S 33°19' E 016°57'812.6
2014-Apr-09 23:34S 33°25' E 017°03'1312.6
2014-Apr-09 22:33S 33°36' E 017°12'1312.8
2014-Apr-09 21:34S 33°45' E 017°22'1312.7
2014-Apr-09 20:34S 33°55' E 017°31'1312.6
2014-Apr-09 19:34S 34°06' E 017°40'1211.7
2014-Apr-09 18:32S 34°15' E 017°49'1111.5
2014-Apr-09 17:33S 34°19' E 018°02'1311.6
2014-Apr-09 16:28S 34°25' E 018°15'1511.4
2014-Apr-09 15:07S 34°32' E 018°32'611.2
2014-Apr-09 14:33S 34°35' E 018°39'1110.9
2014-Apr-09 13:33S 34°40' E 018°51'1111.1
2014-Apr-09 12:33S 34°45' E 019°03'1111.3
2014-Apr-09 11:33S 34°50' E 019°15'1111.5
2014-Apr-09 10:34S 34°55' E 019°28'1211.4
2014-Apr-09 09:33S 35°00' E 019°40'1210.7
2014-Apr-09 08:24S 35°02' E 019°55'7310.5
2014-Apr-09 01:29S 34°51' E 021°23'2010.3
2014-Apr-08 23:33S 34°48' E 021°47'1210.5
2014-Apr-08 22:24S 34°47' E 022°01'1411.0
2014-Apr-08 21:08S 34°46' E 022°18'2211.4
2014-Apr-08 19:14S 34°44' E 022°44'2111.2
2014-Apr-08 17:24S 34°42' E 023°09'48411.5
2014-Apr-06 23:08S 30°22' E 031°14'811.3
2014-Apr-06 22:27S 30°16' E 031°19'1011.0
2014-Apr-06 21:34S 30°09' E 031°27'1110.8
2014-Apr-06 20:33S 30°00' E 031°34'1110.6
2014-Apr-06 19:34S 29°52' E 031°42'49 9.3
2014-Apr-06 14:19S 29°15' E 032°18'7 8.1
2014-Apr-06 13:30S 29°09' E 032°23'  

Dump ship's entire track history

sailing weather and tide predictions

E.r. Basel — A8XQ4 — position and weather